createdAt,value
2022-11-29T00:01:23.512Z,0.60
2022-11-29T00:03:50.684Z,0.66
2022-11-29T00:06:19.003Z,0.67
2022-11-29T00:08:46.097Z,0.70
2022-11-29T00:11:41.770Z,0.65
2022-11-29T00:14:09.498Z,0.66
2022-11-29T00:16:36.064Z,0.70
2022-11-29T00:19:03.120Z,0.70
2022-11-29T00:21:29.769Z,0.69
2022-11-29T00:23:56.225Z,0.67
2022-11-29T00:26:22.705Z,0.64
2022-11-29T00:28:49.244Z,0.65
2022-11-29T00:31:16.470Z,0.69
2022-11-29T00:33:43.094Z,0.66
2022-11-29T00:36:10.312Z,0.66
2022-11-29T00:38:37.142Z,0.62
2022-11-29T00:41:03.834Z,0.62
2022-11-29T00:43:30.293Z,0.62
2022-11-29T00:45:56.990Z,0.62
2022-11-29T00:48:23.551Z,0.66
2022-11-29T00:50:50.016Z,0.62
2022-11-29T00:53:16.602Z,0.58
2022-11-29T00:55:49.603Z,0.59
2022-11-29T00:58:16.094Z,0.61
2022-11-29T01:00:42.839Z,0.63
2022-11-29T01:03:09.568Z,0.64
2022-11-29T01:05:36.241Z,0.63
2022-11-29T01:08:02.793Z,0.65
2022-11-29T01:10:29.260Z,0.64
2022-11-29T01:12:56.344Z,0.65
2022-11-29T01:15:22.836Z,0.61
2022-11-29T01:17:49.565Z,0.63
2022-11-29T01:20:16.757Z,0.64
2022-11-29T01:22:43.247Z,0.62
2022-11-29T01:25:11.838Z,0.65
2022-11-29T01:27:38.478Z,0.64
2022-11-29T01:30:06.222Z,0.67
2022-11-29T01:32:32.843Z,0.67
2022-11-29T01:34:59.339Z,0.61
2022-11-29T01:37:25.882Z,0.63
2022-11-29T01:39:52.399Z,0.58
2022-11-29T01:42:18.879Z,0.58
2022-11-29T01:44:46.186Z,0.61
2022-11-29T01:47:12.958Z,0.61
2022-11-29T01:49:41.725Z,0.60
2022-11-29T01:52:14.481Z,0.61
2022-11-29T01:54:44.006Z,0.68
2022-11-29T01:57:11.088Z,0.64
2022-11-29T01:59:41.743Z,0.59
2022-11-29T02:02:31.553Z,0.58
2022-11-29T02:04:59.343Z,0.59
2022-11-29T02:07:26.092Z,0.62
2022-11-29T02:09:52.630Z,0.59
2022-11-29T02:12:23.945Z,0.59
2022-11-29T02:14:59.262Z,0.61
2022-11-29T02:17:40.275Z,0.65
2022-11-29T02:20:25.347Z,0.65
2022-11-29T02:23:10.634Z,0.65
2022-11-29T02:25:42.976Z,0.68
2022-11-29T02:28:26.713Z,0.63
2022-11-29T02:30:53.227Z,0.61
2022-11-29T02:33:22.831Z,0.60
2022-11-29T02:35:52.126Z,0.61
2022-11-29T02:38:34.682Z,0.61
2022-11-29T02:41:18.878Z,0.61
2022-11-29T02:43:51.533Z,0.63
2022-11-29T02:46:41.132Z,0.64
2022-11-29T02:49:39.951Z,0.62
2022-11-29T02:52:15.369Z,0.60
2022-11-29T02:54:47.678Z,0.59
2022-11-29T02:57:14.280Z,0.57
2022-11-29T02:59:59.109Z,0.62
2022-11-29T03:02:33.648Z,0.57
2022-11-29T03:05:00.141Z,0.55
2022-11-29T03:07:55.990Z,0.58
2022-11-29T03:10:25.607Z,0.60
2022-11-29T03:12:52.945Z,0.57
2022-11-29T03:15:34.280Z,0.55
2022-11-29T03:18:15.857Z,0.54
2022-11-29T03:20:55.373Z,0.53
2022-11-29T03:23:36.682Z,0.55
2022-11-29T03:26:09.121Z,0.56
2022-11-29T03:28:41.586Z,0.56
2022-11-29T03:31:26.857Z,0.57
2022-11-29T03:33:53.365Z,0.58
2022-11-29T03:36:29.031Z,0.62
2022-11-29T03:38:58.892Z,0.57
2022-11-29T03:41:28.551Z,0.58
2022-11-29T03:44:03.089Z,0.57
2022-11-29T03:46:42.966Z,0.59
2022-11-29T03:49:23.062Z,0.58
2022-11-29T03:51:56.229Z,0.56
2022-11-29T03:54:26.181Z,0.55
2022-11-29T03:56:52.833Z,0.61
2022-11-29T03:59:28.292Z,0.63
2022-11-29T04:02:03.975Z,0.57
2022-11-29T04:04:36.598Z,0.59
2022-11-29T04:07:08.955Z,0.57
2022-11-29T04:09:54.148Z,0.54
2022-11-29T04:12:39.477Z,0.52
2022-11-29T04:15:15.486Z,0.54
2022-11-29T04:17:48.443Z,0.54
2022-11-29T04:20:18.073Z,0.52
2022-11-29T04:23:03.233Z,0.50
2022-11-29T04:25:32.823Z,0.54
2022-11-29T04:28:08.534Z,0.45
2022-11-29T04:30:47.060Z,0.44
2022-11-29T04:33:32.040Z,0.48
2022-11-29T04:36:21.527Z,0.47
2022-11-29T04:39:06.855Z,0.54
2022-11-29T04:41:39.219Z,0.54
2022-11-29T04:44:05.653Z,0.54
2022-11-29T04:46:41.414Z,0.59
2022-11-29T04:49:17.059Z,0.58
2022-11-29T04:51:43.565Z,0.55
2022-11-29T04:54:25.103Z,0.52
2022-11-29T04:56:51.619Z,0.50
2022-11-29T04:59:21.275Z,0.50
2022-11-29T05:02:09.963Z,0.51
2022-11-29T05:04:46.745Z,0.49
2022-11-29T05:07:34.987Z,0.45
2022-11-29T05:10:01.540Z,0.49
2022-11-29T05:12:33.018Z,0.50
2022-11-29T05:15:21.764Z,0.50
2022-11-29T05:18:06.933Z,0.56
2022-11-29T05:20:39.242Z,0.49
2022-11-29T05:23:05.712Z,0.51
2022-11-29T05:25:41.410Z,0.51
2022-11-29T05:28:23.011Z,0.52
2022-11-29T05:31:04.596Z,0.51
2022-11-29T05:33:49.873Z,0.53
2022-11-29T05:36:16.713Z,0.52
2022-11-29T05:38:49.454Z,0.52
2022-11-29T05:41:22.071Z,0.56
2022-11-29T05:44:21.004Z,0.44
2022-11-29T05:46:47.655Z,0.50
2022-11-29T05:49:14.143Z,0.49
2022-11-29T05:51:53.881Z,0.50
2022-11-29T05:54:29.709Z,0.47
2022-11-29T05:56:59.396Z,0.52
2022-11-29T05:59:30.249Z,0.46
2022-11-29T06:02:17.957Z,0.43
2022-11-29T06:04:59.436Z,0.49
2022-11-29T06:07:45.415Z,0.43
2022-11-29T06:10:13.932Z,0.47
2022-11-29T06:12:42.777Z,0.47
2022-11-29T06:15:34.384Z,0.48
2022-11-29T06:18:00.985Z,0.39
2022-11-29T06:20:30.281Z,0.49
2022-11-29T06:23:15.669Z,0.48
2022-11-29T06:26:04.024Z,0.53
2022-11-29T06:29:01.687Z,0.56
2022-11-29T06:31:34.009Z,0.52
2022-11-29T06:34:09.745Z,0.51
2022-11-29T06:36:41.144Z,0.50
2022-11-29T06:39:09.180Z,0.49
2022-11-29T06:41:35.841Z,0.47
2022-11-29T06:44:02.719Z,0.48
2022-11-29T06:46:35.390Z,0.50
2022-11-29T06:49:08.067Z,0.48
2022-11-29T06:51:48.547Z,0.52
2022-11-29T06:54:22.111Z,0.50
2022-11-29T06:56:51.786Z,0.49
2022-11-29T06:59:30.761Z,0.49
2022-11-29T07:02:02.150Z,0.49
2022-11-29T07:04:28.671Z,0.50
2022-11-29T07:06:55.481Z,0.48
2022-11-29T07:09:25.572Z,0.44
2022-11-29T07:11:52.254Z,0.50
2022-11-29T07:14:18.919Z,0.50
2022-11-29T07:16:57.842Z,0.51
2022-11-29T07:19:30.549Z,0.56
2022-11-29T07:22:14.640Z,0.56
2022-11-29T07:24:41.198Z,0.57
2022-11-29T07:27:12.885Z,0.56
2022-11-29T07:29:57.552Z,0.53
2022-11-29T07:32:34.566Z,0.54
2022-11-29T07:35:03.939Z,0.53
2022-11-29T07:37:30.439Z,0.46
2022-11-29T07:40:03.320Z,0.49
2022-11-29T07:42:48.553Z,0.53
2022-11-29T07:45:27.695Z,0.55
2022-11-29T07:47:54.379Z,0.53
2022-11-29T07:50:21.395Z,0.56
2022-11-29T07:52:48.351Z,0.59
2022-11-29T07:55:19.027Z,0.61
2022-11-29T07:57:45.973Z,0.59
2022-11-29T08:00:12.980Z,0.63
2022-11-29T08:02:39.724Z,0.66
2022-11-29T08:05:06.599Z,0.69
2022-11-29T08:07:36.837Z,0.75
2022-11-29T08:10:04.812Z,0.75
2022-11-29T08:12:31.451Z,0.73
2022-11-29T08:14:57.956Z,0.70
2022-11-29T08:17:25.875Z,0.73
2022-11-29T08:19:52.599Z,0.76
2022-11-29T08:22:19.121Z,0.75
2022-11-29T08:24:45.898Z,0.76
2022-11-29T08:27:12.640Z,0.78
2022-11-29T08:29:39.192Z,0.81
2022-11-29T08:32:06.439Z,0.79
2022-11-29T08:34:32.951Z,0.80
2022-11-29T08:36:59.534Z,0.86
2022-11-29T08:39:26.080Z,0.92
2022-11-29T08:41:52.620Z,0.96
2022-11-29T08:44:19.156Z,1.01
2022-11-29T08:47:04.441Z,1.04
2022-11-29T08:49:31.054Z,1.08
2022-11-29T08:52:17.552Z,1.09
2022-11-29T08:54:44.820Z,1.07
2022-11-29T08:57:38.458Z,1.10
2022-11-29T08:59:58.299Z,1.15
2022-11-29T09:02:24.918Z,1.17
2022-11-29T09:04:51.475Z,1.14
2022-11-29T09:07:18.076Z,1.13
2022-11-29T09:09:44.656Z,1.08
2022-11-29T09:12:11.221Z,1.09
2022-11-29T09:14:37.753Z,1.14
2022-11-29T09:17:04.450Z,1.18
2022-11-29T09:19:30.998Z,1.21
2022-11-29T09:21:57.558Z,1.27
2022-11-29T09:24:24.120Z,1.34
2022-11-29T09:26:50.758Z,1.40
2022-11-29T09:29:17.718Z,1.40
2022-11-29T09:31:45.355Z,1.43
2022-11-29T09:34:15.412Z,1.50
2022-11-29T09:36:44.165Z,1.42
2022-11-29T09:39:12.522Z,1.50
2022-11-29T09:41:41.117Z,1.45
2022-11-29T09:44:13.796Z,1.56
2022-11-29T09:46:43.092Z,1.49
2022-11-29T09:49:24.592Z,1.57
2022-11-29T09:52:04.158Z,1.43
2022-11-29T09:54:41.362Z,1.48
2022-11-29T09:57:10.862Z,1.48
2022-11-29T09:59:41.131Z,1.52
2022-11-29T10:02:10.777Z,1.58
2022-11-29T10:04:40.491Z,1.55
2022-11-29T10:07:13.116Z,1.53
2022-11-29T10:09:46.075Z,1.59
2022-11-29T10:12:15.678Z,1.57
2022-11-29T10:15:02.208Z,1.57
2022-11-29T10:17:38.696Z,1.67
2022-11-29T10:20:19.717Z,1.61
2022-11-29T10:22:49.799Z,1.59
2022-11-29T10:25:23.276Z,1.55
2022-11-29T10:27:50.075Z,1.62
2022-11-29T10:30:18.081Z,1.55
2022-11-29T10:32:46.482Z,1.69
2022-11-29T10:35:14.898Z,1.71
2022-11-29T10:37:41.607Z,1.75
2022-11-29T10:40:13.119Z,1.59
2022-11-29T10:42:48.716Z,1.65
2022-11-29T10:45:23.406Z,1.77
2022-11-29T10:47:51.119Z,1.69
2022-11-29T10:50:19.478Z,1.71
2022-11-29T10:52:46.075Z,1.68
2022-11-29T10:55:14.733Z,1.65
2022-11-29T10:58:00.097Z,1.66
2022-11-29T11:00:26.958Z,1.71
2022-11-29T11:02:53.531Z,1.70
2022-11-29T11:05:26.113Z,1.73
2022-11-29T11:07:58.901Z,1.72
2022-11-29T11:10:30.864Z,1.64
2022-11-29T11:13:01.597Z,1.60
2022-11-29T11:15:30.112Z,1.59
2022-11-29T11:18:05.171Z,1.62
2022-11-29T11:20:32.805Z,1.66
2022-11-29T11:23:01.031Z,1.70
2022-11-29T11:25:34.728Z,1.68
2022-11-29T11:28:21.356Z,1.72
2022-11-29T11:30:55.685Z,1.69
2022-11-29T11:33:34.252Z,1.65
2022-11-29T11:36:03.615Z,1.57
2022-11-29T11:38:30.231Z,1.54
2022-11-29T11:41:04.460Z,1.61
2022-11-29T11:43:31.843Z,1.59
2022-11-29T11:45:58.615Z,1.52
2022-11-29T11:48:25.318Z,1.61
2022-11-29T11:50:53.233Z,1.59
2022-11-29T11:53:36.723Z,1.63
2022-11-29T11:56:08.180Z,1.74
2022-11-29T11:58:37.981Z,1.68
2022-11-29T12:01:13.734Z,1.70
2022-11-29T12:03:49.528Z,1.46
2022-11-29T12:06:38.444Z,1.50
2022-11-29T12:09:29.439Z,1.49
2022-11-29T12:12:14.610Z,1.45
2022-11-29T12:14:53.295Z,1.45
2022-11-29T12:17:20.473Z,1.48
2022-11-29T12:19:53.039Z,1.50
2022-11-29T12:22:24.479Z,1.47
2022-11-29T12:24:55.166Z,1.44
2022-11-29T12:27:21.753Z,1.46
2022-11-29T12:29:48.442Z,1.50
2022-11-29T12:32:20.809Z,1.50
2022-11-29T12:34:53.323Z,1.48
2022-11-29T12:37:25.856Z,1.49
2022-11-29T12:39:57.489Z,1.53
2022-11-29T12:42:26.821Z,1.53
2022-11-29T12:45:00.489Z,1.50
2022-11-29T12:47:51.547Z,1.50
2022-11-29T12:50:21.516Z,1.44
2022-11-29T12:52:50.838Z,1.41
2022-11-29T12:55:24.682Z,1.44
2022-11-29T12:58:07.207Z,1.43
2022-11-29T13:00:40.817Z,1.41
2022-11-29T13:03:13.601Z,1.41
2022-11-29T13:05:52.278Z,1.43
2022-11-29T13:08:37.341Z,1.37
2022-11-29T13:11:22.837Z,1.40
2022-11-29T13:14:40.989Z,1.39
2022-11-29T13:17:01.816Z,1.42
2022-11-29T13:19:28.321Z,1.40
2022-11-29T13:22:13.807Z,1.39
2022-11-29T13:24:42.861Z,1.44
2022-11-29T13:27:14.521Z,1.43
2022-11-29T13:29:41.081Z,1.38
2022-11-29T13:32:14.445Z,1.39
2022-11-29T13:34:47.142Z,1.34
2022-11-29T13:37:27.810Z,1.41
2022-11-29T13:39:58.277Z,1.38
2022-11-29T13:42:46.879Z,1.34
2022-11-29T13:45:21.360Z,1.31
2022-11-29T13:47:58.802Z,1.30
2022-11-29T13:50:44.651Z,1.30
2022-11-29T13:53:13.999Z,1.31
2022-11-29T13:55:44.488Z,1.28
2022-11-29T13:58:32.354Z,1.28
2022-11-29T14:01:05.883Z,1.30
2022-11-29T14:03:38.703Z,1.33
2022-11-29T14:06:10.169Z,1.48
2022-11-29T14:09:02.526Z,1.39
2022-11-29T14:11:26.675Z,1.38
2022-11-29T14:14:02.297Z,1.33
2022-11-29T14:16:43.970Z,1.29
2022-11-29T14:19:10.477Z,1.27
2022-11-29T14:21:55.921Z,1.27
2022-11-29T14:24:35.461Z,1.26
2022-11-29T14:27:08.003Z,1.23
2022-11-29T14:29:54.116Z,1.05
2022-11-29T14:32:45.761Z,0.99
2022-11-29T14:35:12.904Z,1.06
2022-11-29T14:37:48.753Z,1.05
2022-11-29T14:40:24.247Z,1.06
2022-11-29T14:42:51.206Z,1.09
2022-11-29T14:45:22.853Z,1.06
2022-11-29T14:47:49.728Z,1.10
2022-11-29T14:50:28.524Z,1.14
2022-11-29T14:52:55.039Z,1.19
2022-11-29T14:55:21.593Z,1.18
2022-11-29T14:57:48.268Z,1.23
2022-11-29T15:00:19.313Z,1.18
2022-11-29T15:02:49.154Z,1.15
2022-11-29T15:05:18.871Z,1.13
2022-11-29T15:07:52.803Z,1.09
2022-11-29T15:10:22.403Z,1.08
2022-11-29T15:12:49.446Z,1.06
2022-11-29T15:15:15.957Z,1.01
2022-11-29T15:17:51.918Z,1.00
2022-11-29T15:20:37.671Z,1.02
2022-11-29T15:23:12.600Z,1.02
2022-11-29T15:25:46.518Z,1.05
2022-11-29T15:28:20.035Z,1.09
2022-11-29T15:30:47.340Z,1.11
2022-11-29T15:33:24.047Z,1.12
2022-11-29T15:35:51.807Z,1.14
2022-11-29T15:38:19.159Z,1.16
2022-11-29T15:40:53.196Z,1.17
2022-11-29T15:43:26.315Z,1.17
2022-11-29T15:45:57.456Z,1.18
2022-11-29T15:48:28.370Z,1.25
2022-11-29T15:51:13.613Z,1.18
2022-11-29T15:54:10.099Z,1.12
2022-11-29T15:56:45.217Z,1.15
2022-11-29T15:59:32.755Z,1.12
2022-11-29T16:02:02.518Z,1.05
2022-11-29T16:04:29.527Z,1.02
2022-11-29T16:06:56.777Z,1.00
2022-11-29T16:09:28.031Z,1.02
2022-11-29T16:11:54.571Z,0.99
2022-11-29T16:14:23.877Z,0.94
2022-11-29T16:16:55.088Z,0.89
2022-11-29T16:19:21.592Z,0.87
2022-11-29T16:21:58.558Z,0.88
2022-11-29T16:24:26.459Z,0.92
2022-11-29T16:26:53.485Z,0.94
2022-11-29T16:29:21.912Z,0.93
2022-11-29T16:31:48.592Z,0.94
2022-11-29T16:34:24.558Z,0.96
2022-11-29T16:37:05.235Z,0.94
2022-11-29T16:39:33.312Z,0.95
2022-11-29T16:42:02.840Z,0.96
2022-11-29T16:44:41.558Z,0.95
2022-11-29T16:47:12.493Z,0.93
2022-11-29T16:49:39.040Z,0.92
2022-11-29T16:52:23.238Z,0.92
2022-11-29T16:54:51.127Z,0.93
2022-11-29T16:57:18.205Z,0.94
2022-11-29T16:59:44.861Z,0.99
2022-11-29T17:02:11.648Z,0.99
2022-11-29T17:04:38.199Z,0.98
2022-11-29T17:07:07.176Z,0.96
2022-11-29T17:09:34.377Z,0.97
2022-11-29T17:12:01.968Z,0.89
2022-11-29T17:14:29.265Z,0.90
2022-11-29T17:16:55.906Z,0.91
2022-11-29T17:19:24.023Z,0.93
2022-11-29T17:21:51.420Z,0.86
2022-11-29T17:24:19.142Z,0.80
2022-11-29T17:26:46.118Z,0.81
2022-11-29T17:29:14.056Z,0.83
2022-11-29T17:31:41.534Z,0.86
2022-11-29T17:34:08.085Z,0.83
2022-11-29T17:36:34.675Z,0.86
2022-11-29T17:39:02.169Z,0.83
2022-11-29T17:41:29.152Z,0.82
2022-11-29T17:43:56.814Z,0.84
2022-11-29T17:46:26.040Z,0.86
2022-11-29T17:48:53.102Z,0.87
2022-11-29T17:51:49.976Z,0.88
2022-11-29T17:54:08.624Z,0.91
2022-11-29T17:56:35.283Z,0.91
2022-11-29T17:59:02.702Z,0.89
2022-11-29T18:01:30.925Z,0.89
2022-11-29T18:03:59.495Z,0.87
2022-11-29T18:06:27.276Z,0.88
2022-11-29T18:08:55.033Z,0.87
2022-11-29T18:11:22.921Z,0.87
2022-11-29T18:13:50.016Z,0.88
2022-11-29T18:16:18.688Z,0.89
2022-11-29T18:18:45.676Z,0.89
2022-11-29T18:21:12.581Z,0.88
2022-11-29T18:23:40.641Z,0.86
2022-11-29T18:26:11.552Z,0.87
2022-11-29T18:28:39.159Z,0.87
2022-11-29T18:31:13.026Z,0.87
2022-11-29T18:33:40.326Z,0.89
2022-11-29T18:36:10.119Z,0.87
2022-11-29T18:38:37.112Z,0.87
2022-11-29T18:41:22.445Z,0.87
2022-11-29T18:43:49.275Z,0.84
2022-11-29T18:46:17.123Z,0.82
2022-11-29T18:48:44.612Z,0.81
2022-11-29T18:51:12.415Z,0.82
2022-11-29T18:53:39.421Z,0.82
2022-11-29T18:56:11.155Z,0.80
2022-11-29T18:58:38.291Z,0.78
2022-11-29T19:01:09.118Z,0.78
2022-11-29T19:03:36.741Z,0.76
2022-11-29T19:06:07.253Z,0.73
2022-11-29T19:08:33.797Z,0.71
2022-11-29T19:11:20.566Z,0.73
2022-11-29T19:13:47.854Z,0.71
2022-11-29T19:16:16.061Z,0.72
2022-11-29T19:18:42.991Z,0.72
2022-11-29T19:21:16.714Z,0.72
2022-11-29T19:23:44.078Z,0.74
2022-11-29T19:26:14.723Z,0.72
2022-11-29T19:28:42.138Z,0.67
2022-11-29T19:31:09.633Z,0.60
2022-11-29T19:33:37.116Z,0.58
2022-11-29T19:36:23.880Z,0.58
2022-11-29T19:38:53.870Z,0.59
2022-11-29T19:41:25.451Z,0.62
2022-11-29T19:43:52.675Z,0.61
2022-11-29T19:46:27.150Z,0.61
2022-11-29T19:48:55.037Z,0.62
2022-11-29T19:51:22.416Z,0.64
2022-11-29T19:53:51.917Z,0.66
2022-11-29T19:56:20.489Z,0.66
2022-11-29T19:58:47.151Z,0.63
2022-11-29T20:01:14.831Z,0.56
2022-11-29T20:03:42.086Z,0.55
2022-11-29T20:06:09.600Z,0.54
2022-11-29T20:08:36.808Z,0.57
2022-11-29T20:11:07.438Z,0.57
2022-11-29T20:13:34.056Z,0.57
2022-11-29T20:16:04.876Z,0.59
2022-11-29T20:18:34.592Z,0.60
2022-11-29T20:21:08.311Z,0.62
2022-11-29T20:23:35.374Z,0.61
2022-11-29T20:26:02.039Z,0.62
2022-11-29T20:28:28.599Z,0.64
2022-11-29T20:30:55.263Z,0.63
2022-11-29T20:33:24.092Z,0.63
2022-11-29T20:35:55.604Z,0.62
2022-11-29T20:38:35.367Z,0.63
2022-11-29T20:41:19.551Z,0.62
2022-11-29T20:43:46.053Z,0.62
2022-11-29T20:46:12.777Z,0.57
2022-11-29T20:48:39.567Z,0.54
2022-11-29T20:51:06.271Z,0.54
2022-11-29T20:53:42.961Z,0.55
2022-11-29T20:56:10.288Z,0.57
2022-11-29T20:58:37.094Z,0.56
2022-11-29T21:01:04.357Z,0.59
2022-11-29T21:03:31.078Z,0.59
2022-11-29T21:06:00.899Z,0.59
2022-11-29T21:08:27.560Z,0.55
2022-11-29T21:10:54.458Z,0.54
2022-11-29T21:13:22.461Z,0.52
2022-11-29T21:15:49.285Z,0.54
2022-11-29T21:18:26.050Z,0.55
2022-11-29T21:21:01.635Z,0.56
2022-11-29T21:23:31.351Z,0.55
2022-11-29T21:26:00.811Z,0.53
2022-11-29T21:28:32.155Z,0.52
2022-11-29T21:30:58.880Z,0.55
2022-11-29T21:33:25.595Z,0.53
2022-11-29T21:35:54.836Z,0.53
2022-11-29T21:38:23.167Z,0.52
2022-11-29T21:40:49.721Z,0.53
2022-11-29T21:43:16.272Z,0.54
2022-11-29T21:45:43.012Z,0.53
2022-11-29T21:48:29.491Z,0.52
2022-11-29T21:50:56.852Z,0.54
2022-11-29T21:53:23.755Z,0.57
2022-11-29T21:55:55.278Z,0.54
2022-11-29T21:58:21.842Z,0.50
2022-11-29T22:00:48.448Z,0.49
2022-11-29T22:03:14.994Z,0.48
2022-11-29T22:05:41.501Z,0.50
2022-11-29T22:08:08.048Z,0.53
2022-11-29T22:10:34.563Z,0.52
2022-11-29T22:13:01.087Z,0.45
2022-11-29T22:15:28.183Z,0.41
2022-11-29T22:17:54.807Z,0.42
2022-11-29T22:20:21.473Z,0.45
2022-11-29T22:22:48.660Z,0.44
2022-11-29T22:25:15.532Z,0.41
2022-11-29T22:27:42.036Z,0.43
2022-11-29T22:30:08.752Z,0.47
2022-11-29T22:32:35.280Z,0.48
2022-11-29T22:35:01.805Z,0.47
2022-11-29T22:37:28.371Z,0.49
2022-11-29T22:39:54.919Z,0.50
2022-11-29T22:42:21.534Z,0.51
2022-11-29T22:44:48.321Z,0.52
2022-11-29T22:47:15.097Z,0.52
2022-11-29T22:49:41.672Z,0.55
2022-11-29T22:52:08.244Z,0.58
2022-11-29T22:54:34.792Z,0.60
2022-11-29T22:57:01.316Z,0.58
2022-11-29T22:59:27.886Z,0.57
2022-11-29T23:01:54.432Z,0.57
2022-11-29T23:04:21.013Z,0.56
2022-11-29T23:06:47.572Z,0.57
2022-11-29T23:09:16.582Z,0.57
2022-11-29T23:11:44.557Z,0.58
2022-11-29T23:14:11.333Z,0.61
2022-11-29T23:16:37.963Z,0.58
2022-11-29T23:19:04.567Z,0.47
2022-11-29T23:21:32.651Z,0.43
2022-11-29T23:24:01.002Z,0.44
2022-11-29T23:26:36.519Z,0.46
2022-11-29T23:29:04.025Z,0.48
2022-11-29T23:31:30.806Z,0.47
2022-11-29T23:33:57.597Z,0.47
2022-11-29T23:36:24.126Z,0.44
2022-11-29T23:38:50.677Z,0.46
2022-11-29T23:41:17.440Z,0.48
2022-11-29T23:43:44.102Z,0.49
2022-11-29T23:46:13.529Z,0.46
2022-11-29T23:48:40.100Z,0.48
2022-11-29T23:51:06.690Z,0.50
2022-11-29T23:53:33.333Z,0.52
2022-11-29T23:56:04.759Z,0.54
2022-11-29T23:58:32.002Z,0.53
